createdAt,value
2022-11-23T00:01:37.335Z,99755.94
2022-11-23T00:04:13.382Z,99751.56
2022-11-23T00:06:41.501Z,99757.59
2022-11-23T00:09:10.756Z,99765.75
2022-11-23T00:11:37.873Z,99759.56
2022-11-23T00:14:05.198Z,99753.38
2022-11-23T00:16:32.404Z,99750.03
2022-11-23T00:19:01.943Z,99741.47
2022-11-23T00:21:32.845Z,99745.03
2022-11-23T00:24:00.500Z,99742.94
2022-11-23T00:26:28.144Z,99748.50
2022-11-23T00:28:55.210Z,99750.59
2022-11-23T00:31:22.753Z,99741.88
2022-11-23T00:33:53.584Z,99738.25
2022-11-23T00:36:22.792Z,99738.97
2022-11-23T00:38:51.182Z,99741.88
2022-11-23T00:41:24.070Z,99739.44
2022-11-23T00:43:51.484Z,99740.44
2022-11-23T00:46:28.095Z,99748.28
2022-11-23T00:48:57.374Z,99751.59
2022-11-23T00:51:29.545Z,99760.69
2022-11-23T00:53:56.797Z,99757.13
2022-11-23T00:56:23.941Z,99761.22
2022-11-23T00:58:56.552Z,99766.03
2022-11-23T01:01:29.220Z,99765.19
2022-11-23T01:03:59.499Z,99758.69
2022-11-23T01:06:33.929Z,99759.63
2022-11-23T01:09:17.217Z,99769.88
2022-11-23T01:11:45.280Z,99769.97
2022-11-23T01:14:12.927Z,99768.69
2022-11-23T01:16:42.065Z,99767.84
2022-11-23T01:19:14.779Z,99769.28
2022-11-23T01:21:42.505Z,99762.56
2022-11-23T01:24:22.079Z,99761.50
2022-11-23T01:26:54.661Z,99766.44
2022-11-23T01:29:23.783Z,99763.63
2022-11-23T01:31:51.024Z,99770.41
2022-11-23T01:34:18.313Z,99773.25
2022-11-23T01:36:45.624Z,99771.47
2022-11-23T01:39:13.895Z,99776.06
2022-11-23T01:41:44.501Z,99763.53
2022-11-23T01:44:32.954Z,99775.91
2022-11-23T01:47:07.909Z,99774.03
2022-11-23T01:49:46.204Z,99773.94
2022-11-23T01:52:26.039Z,99775.63
2022-11-23T01:55:01.544Z,99778.00
2022-11-23T01:57:41.022Z,99779.09
2022-11-23T02:00:09.278Z,99778.09
2022-11-23T02:02:38.759Z,99778.34
2022-11-23T02:05:06.760Z,99785.16
2022-11-23T02:07:35.188Z,99782.09
2022-11-23T02:10:02.734Z,99785.31
2022-11-23T02:12:29.705Z,99773.19
2022-11-23T02:14:56.727Z,99772.19
2022-11-23T02:17:23.736Z,99773.47
2022-11-23T02:20:05.591Z,99776.94
2022-11-23T02:22:54.534Z,99777.03
2022-11-23T02:25:45.496Z,99775.88
2022-11-23T02:28:22.934Z,99772.84
2022-11-23T02:30:53.181Z,99767.88
2022-11-23T02:33:20.236Z,99774.38
2022-11-23T02:35:55.208Z,99765.97
2022-11-23T02:38:25.437Z,99762.22
2022-11-23T02:40:52.485Z,99763.66
2022-11-23T02:43:19.822Z,99761.19
2022-11-23T02:45:58.633Z,99760.28
2022-11-23T02:48:26.432Z,99765.75
2022-11-23T02:50:53.453Z,99769.38
2022-11-23T02:53:20.519Z,99769.81
2022-11-23T02:55:47.774Z,99766.41
2022-11-23T02:58:14.853Z,99764.63
2022-11-23T03:00:41.920Z,99776.31
2022-11-23T03:03:08.941Z,99773.63
2022-11-23T03:05:36.051Z,99776.25
2022-11-23T03:08:03.147Z,99776.31
2022-11-23T03:10:30.222Z,99779.63
2022-11-23T03:12:57.560Z,99790.19
2022-11-23T03:15:28.619Z,99782.06
2022-11-23T03:17:58.188Z,99782.78
2022-11-23T03:20:25.395Z,99787.84
2022-11-23T03:22:52.473Z,99785.56
2022-11-23T03:25:19.584Z,99787.88
2022-11-23T03:27:47.357Z,99778.41
2022-11-23T03:30:15.463Z,99779.81
2022-11-23T03:32:42.435Z,99784.88
2022-11-23T03:35:09.778Z,99782.13
2022-11-23T03:37:36.769Z,99779.66
2022-11-23T03:40:04.087Z,99778.63
2022-11-23T03:42:31.048Z,99785.31
2022-11-23T03:44:58.053Z,99781.56
2022-11-23T03:47:25.032Z,99784.75
2022-11-23T03:49:51.989Z,99787.06
2022-11-23T03:52:18.992Z,99777.84
2022-11-23T03:54:46.987Z,99790.78
2022-11-23T03:57:14.300Z,99787.38
2022-11-23T03:59:41.276Z,99786.25
2022-11-23T04:02:08.305Z,99796.47
2022-11-23T04:04:36.161Z,99787.91
2022-11-23T04:07:03.423Z,99783.38
2022-11-23T04:09:30.869Z,99798.44
2022-11-23T04:11:58.102Z,99799.47
2022-11-23T04:14:25.182Z,99796.69
2022-11-23T04:16:52.295Z,99802.75
2022-11-23T04:19:19.463Z,99796.03
2022-11-23T04:21:46.545Z,99796.19
2022-11-23T04:24:13.606Z,99795.94
2022-11-23T04:26:41.141Z,99793.75
2022-11-23T04:29:08.136Z,99788.28
2022-11-23T04:31:35.188Z,99797.91
2022-11-23T04:34:02.245Z,99787.22
2022-11-23T04:36:29.780Z,99788.66
2022-11-23T04:38:56.783Z,99793.28
2022-11-23T04:41:24.906Z,99793.91
2022-11-23T04:43:51.950Z,99801.22
2022-11-23T04:46:19.104Z,99799.72
2022-11-23T04:48:46.134Z,99802.13
2022-11-23T04:51:14.168Z,99797.69
2022-11-23T04:53:41.173Z,99795.94
2022-11-23T04:56:08.873Z,99804.56
2022-11-23T04:58:36.552Z,99803.84
2022-11-23T05:01:05.668Z,99804.69
2022-11-23T05:03:35.217Z,99805.75
2022-11-23T05:06:03.920Z,99803.25
2022-11-23T05:08:31.763Z,99808.22
2022-11-23T05:10:59.021Z,99806.97
2022-11-23T05:13:26.136Z,99797.13
2022-11-23T05:15:53.089Z,99804.00
2022-11-23T05:18:20.406Z,99799.25
2022-11-23T05:20:47.950Z,99799.25
2022-11-23T05:23:15.295Z,99794.00
2022-11-23T05:25:42.361Z,99799.00
2022-11-23T05:28:38.895Z,99810.25
2022-11-23T05:31:05.803Z,99812.38
2022-11-23T05:33:32.856Z,99814.63
2022-11-23T05:35:59.998Z,99806.38
2022-11-23T05:38:27.289Z,99801.59
2022-11-23T05:40:54.266Z,99800.00
2022-11-23T05:43:21.639Z,99808.22
2022-11-23T05:45:48.901Z,99802.31
2022-11-23T05:48:15.877Z,99800.56
2022-11-23T05:50:42.839Z,99794.09
2022-11-23T05:53:09.915Z,99794.81
2022-11-23T05:55:36.928Z,99796.00
2022-11-23T05:58:03.934Z,99799.41
2022-11-23T06:00:31.025Z,99801.84
2022-11-23T06:03:02.337Z,99805.69
2022-11-23T06:05:30.498Z,99809.09
2022-11-23T06:07:57.853Z,99803.28
2022-11-23T06:10:24.978Z,99797.59
2022-11-23T06:12:52.634Z,99799.59
2022-11-23T06:15:20.047Z,99803.13
2022-11-23T06:17:47.110Z,99805.88
2022-11-23T06:20:14.369Z,99806.22
2022-11-23T06:22:41.341Z,99804.41
2022-11-23T06:25:09.164Z,99798.91
2022-11-23T06:27:36.213Z,99795.03
2022-11-23T06:30:03.996Z,99815.16
2022-11-23T06:32:30.943Z,99808.03
2022-11-23T06:35:00.824Z,99808.94
2022-11-23T06:37:28.358Z,99807.59
2022-11-23T06:39:55.341Z,99817.25
2022-11-23T06:42:39.875Z,99823.78
2022-11-23T06:45:08.733Z,99823.84
2022-11-23T06:47:35.974Z,99825.91
2022-11-23T06:50:03.295Z,99831.19
2022-11-23T06:52:30.395Z,99827.16
2022-11-23T06:54:57.417Z,99831.59
2022-11-23T06:57:24.649Z,99835.59
2022-11-23T06:59:51.672Z,99830.38
2022-11-23T07:02:18.779Z,99829.84
2022-11-23T07:04:45.852Z,99832.38
2022-11-23T07:07:13.089Z,99833.34
2022-11-23T07:09:40.391Z,99839.16
2022-11-23T07:12:07.959Z,99840.53
2022-11-23T07:14:35.081Z,99835.00
2022-11-23T07:17:02.235Z,99834.94
2022-11-23T07:19:29.588Z,99841.81
2022-11-23T07:21:56.777Z,99847.81
2022-11-23T07:24:23.773Z,99848.81
2022-11-23T07:26:51.161Z,99844.06
2022-11-23T07:29:21.430Z,99851.97
2022-11-23T07:31:48.536Z,99856.06
2022-11-23T07:34:15.529Z,99854.75
2022-11-23T07:36:42.626Z,99858.50
2022-11-23T07:39:09.897Z,99870.03
2022-11-23T07:41:36.875Z,99877.75
2022-11-23T07:44:04.348Z,99875.72
2022-11-23T07:46:31.341Z,99880.44
2022-11-23T07:49:02.142Z,99865.28
2022-11-23T07:51:29.885Z,99867.16
2022-11-23T07:53:57.468Z,99871.69
2022-11-23T07:56:24.880Z,99866.25
2022-11-23T07:58:52.141Z,99871.53
2022-11-23T08:01:20.114Z,99880.63
2022-11-23T08:03:48.479Z,99885.59
2022-11-23T08:06:16.781Z,99887.63
2022-11-23T08:08:44.052Z,99884.25
2022-11-23T08:11:14.642Z,99887.50
2022-11-23T08:13:41.675Z,99887.06
2022-11-23T08:16:08.799Z,99892.50
2022-11-23T08:18:38.198Z,99893.97
2022-11-23T08:21:05.763Z,99889.13
2022-11-23T08:23:33.023Z,99893.66
2022-11-23T08:26:02.456Z,99889.94
2022-11-23T08:28:29.588Z,99884.66
2022-11-23T08:30:56.573Z,99897.50
2022-11-23T08:33:23.577Z,99885.50
2022-11-23T08:35:50.519Z,99888.41
2022-11-23T08:38:17.612Z,99889.41
2022-11-23T08:40:44.780Z,99889.91
2022-11-23T08:43:11.783Z,99890.44
2022-11-23T08:45:39.032Z,99884.59
2022-11-23T08:48:06.992Z,99893.16
2022-11-23T08:50:35.219Z,99884.50
2022-11-23T08:53:02.247Z,99884.19
2022-11-23T08:55:29.997Z,99886.19
2022-11-23T08:57:58.502Z,99893.59
2022-11-23T09:00:26.744Z,99893.53
2022-11-23T09:02:53.869Z,99892.78
2022-11-23T09:05:21.844Z,99903.50
2022-11-23T09:07:49.015Z,99905.44
2022-11-23T09:10:18.718Z,99897.59
2022-11-23T09:12:48.258Z,99902.16
2022-11-23T09:15:15.668Z,99899.34
2022-11-23T09:17:42.983Z,99898.47
2022-11-23T09:20:11.502Z,99904.06
2022-11-23T09:22:39.261Z,99899.41
2022-11-23T09:25:07.273Z,99901.28
2022-11-23T09:27:34.422Z,99896.59
2022-11-23T09:30:01.636Z,99894.09
2022-11-23T09:32:29.148Z,99886.28
2022-11-23T09:34:56.116Z,99899.34
2022-11-23T09:37:23.208Z,99886.59
2022-11-23T09:39:50.190Z,99887.63
2022-11-23T09:42:47.292Z,99887.38
2022-11-23T09:45:50.683Z,99884.22
2022-11-23T09:49:14.827Z,99890.34
2022-11-23T09:51:43.096Z,99887.19
2022-11-23T09:54:37.512Z,99888.19
2022-11-23T09:57:05.652Z,99891.00
2022-11-23T09:59:53.259Z,99890.69
2022-11-23T10:02:24.980Z,99890.28
2022-11-23T10:04:53.588Z,99875.56
2022-11-23T10:08:06.477Z,99876.94
2022-11-23T10:10:46.659Z,99881.09
2022-11-23T10:13:53.725Z,99888.84
2022-11-23T10:17:14.768Z,99881.22
2022-11-23T10:20:18.287Z,99873.34
2022-11-23T10:23:01.868Z,99876.59
2022-11-23T10:25:47.296Z,99881.00
2022-11-23T10:28:19.858Z,99884.66
2022-11-23T10:31:17.822Z,99883.28
2022-11-23T10:34:23.668Z,99878.56
2022-11-23T10:36:50.804Z,99877.47
2022-11-23T10:39:25.948Z,99879.28
2022-11-23T10:42:03.120Z,99874.13
2022-11-23T10:44:38.060Z,99872.19
2022-11-23T10:47:05.645Z,99874.72
2022-11-23T10:49:35.488Z,99864.53
2022-11-23T10:52:33.433Z,99861.66
2022-11-23T10:55:06.142Z,99854.72
2022-11-23T10:57:42.694Z,99861.09
2022-11-23T11:00:15.402Z,99860.47
2022-11-23T11:02:54.310Z,99860.81
2022-11-23T11:08:36.871Z,99859.44
2022-11-23T11:11:21.093Z,99858.34
2022-11-23T11:13:49.490Z,99859.19
2022-11-23T11:16:35.549Z,99858.47
2022-11-23T11:19:36.420Z,99857.00
2022-11-23T11:22:33.379Z,99850.41
2022-11-23T11:25:02.344Z,99844.91
2022-11-23T11:27:31.946Z,99845.72
2022-11-23T11:30:20.525Z,99844.97
2022-11-23T11:33:26.260Z,99848.22
2022-11-23T11:35:56.521Z,99840.91
2022-11-23T11:38:35.725Z,99833.13
2022-11-23T11:41:15.584Z,99839.44
2022-11-23T11:43:53.558Z,99843.06
2022-11-23T11:46:29.641Z,99842.44
2022-11-23T11:49:21.624Z,99838.97
2022-11-23T11:52:19.017Z,99843.97
2022-11-23T11:55:15.297Z,99842.38
2022-11-23T11:57:50.075Z,99845.25
2022-11-23T12:00:20.657Z,99845.34
2022-11-23T12:03:42.922Z,99845.13
2022-11-23T12:06:36.021Z,99850.72
2022-11-23T12:09:20.209Z,99855.28
2022-11-23T12:11:47.357Z,99847.88
2022-11-23T12:14:15.626Z,99847.63
2022-11-23T12:17:32.344Z,99854.16
2022-11-23T12:20:22.634Z,99845.75
2022-11-23T12:23:19.497Z,99838.53
2022-11-23T12:26:29.969Z,99845.25
2022-11-23T12:29:31.694Z,99843.72
2022-11-23T12:32:51.807Z,99845.56
2022-11-23T12:36:07.236Z,99846.41
2022-11-23T12:39:09.985Z,99837.22
2022-11-23T12:42:15.096Z,99843.25
2022-11-23T12:44:59.647Z,99842.22
2022-11-23T12:48:15.439Z,99842.78
2022-11-23T12:51:23.573Z,99843.97
2022-11-23T12:54:17.413Z,99846.28
2022-11-23T12:57:02.268Z,99849.81
2022-11-23T12:59:57.957Z,99847.84
2022-11-23T13:02:57.292Z,99850.13
2022-11-23T13:06:02.143Z,99850.94
2022-11-23T13:09:07.443Z,99849.81
2022-11-23T13:12:17.523Z,99854.16
2022-11-23T13:15:23.156Z,99845.97
2022-11-23T13:18:23.143Z,99849.16
2022-11-23T13:21:30.361Z,99844.72
2022-11-23T13:23:57.430Z,99840.22
2022-11-23T13:26:33.964Z,99846.91
2022-11-23T13:29:51.722Z,99844.84
2022-11-23T13:32:42.311Z,99846.31
2022-11-23T13:35:21.035Z,99849.00
2022-11-23T13:37:56.697Z,99856.13
2022-11-23T13:40:35.796Z,99852.28
2022-11-23T13:43:32.624Z,99854.28
2022-11-23T13:46:28.755Z,99856.75
2022-11-23T13:49:00.582Z,99855.03
2022-11-23T13:51:35.891Z,99856.69
2022-11-23T13:54:21.852Z,99854.34
2022-11-23T13:57:02.161Z,99850.84
2022-11-23T13:59:34.879Z,99855.09
2022-11-23T14:02:07.959Z,99857.19
2022-11-23T14:05:11.634Z,99848.13
2022-11-23T14:07:46.456Z,99861.31
2022-11-23T14:10:24.388Z,99858.41
2022-11-23T14:13:05.623Z,99868.13
2022-11-23T14:15:38.292Z,99864.06
2022-11-23T14:18:58.780Z,99863.97
2022-11-23T14:21:39.259Z,99864.53
2022-11-23T14:25:08.852Z,99862.13
2022-11-23T14:28:32.047Z,99856.28
2022-11-23T14:31:46.398Z,99861.34
2022-11-23T14:34:41.307Z,99870.78
2022-11-23T14:38:00.289Z,99863.69
2022-11-23T14:41:19.337Z,99868.38
2022-11-23T14:43:47.541Z,99873.34
2022-11-23T14:46:24.653Z,99869.84
2022-11-23T14:49:02.805Z,99876.78
2022-11-23T14:51:30.002Z,99880.59
2022-11-23T14:54:08.081Z,99883.50
2022-11-23T14:56:47.459Z,99884.22
2022-11-23T14:59:17.441Z,99883.34
2022-11-23T15:02:11.672Z,99879.53
2022-11-23T15:05:07.421Z,99885.19
2022-11-23T15:08:21.819Z,99882.09
2022-11-23T15:11:22.072Z,99878.53
2022-11-23T15:13:55.430Z,99881.34
2022-11-23T15:16:22.676Z,99890.19
2022-11-23T15:18:49.777Z,99890.06
2022-11-23T15:21:27.968Z,99890.38
2022-11-23T15:23:58.200Z,99899.53
2022-11-23T15:26:48.090Z,99902.34
2022-11-23T15:29:39.113Z,99906.16
2022-11-23T15:32:34.693Z,99902.72
2022-11-23T15:35:12.919Z,99911.69
2022-11-23T15:37:48.855Z,99904.03
2022-11-23T15:40:19.333Z,99912.09
2022-11-23T15:42:51.126Z,99904.59
2022-11-23T15:45:45.660Z,99903.59
2022-11-23T15:48:23.130Z,99907.16
2022-11-23T15:51:04.634Z,99912.25
2022-11-23T15:53:51.872Z,99905.91
2022-11-23T15:56:36.137Z,99907.97
2022-11-23T15:59:33.590Z,99911.19
2022-11-23T16:02:04.822Z,99920.00
2022-11-23T16:04:41.346Z,99916.75
2022-11-23T16:07:25.697Z,99913.94
2022-11-23T16:10:22.945Z,99917.53
2022-11-23T16:12:57.145Z,99915.63
2022-11-23T16:15:44.124Z,99916.75
2022-11-23T16:18:31.779Z,99916.22
2022-11-23T16:21:04.892Z,99925.66
2022-11-23T16:24:04.905Z,99921.56
2022-11-23T16:26:33.772Z,99916.16
2022-11-23T16:29:02.074Z,99929.88
2022-11-23T16:31:37.013Z,99927.06
2022-11-23T16:34:16.492Z,99931.66
2022-11-23T16:36:43.483Z,99918.94
2022-11-23T16:39:11.190Z,99926.78
2022-11-23T16:41:38.461Z,99930.53
2022-11-23T16:44:05.671Z,99932.53
2022-11-23T16:46:33.029Z,99920.78
2022-11-23T16:49:00.669Z,99935.72
2022-11-23T16:51:30.471Z,99945.72
2022-11-23T16:54:15.284Z,99939.88
2022-11-23T16:56:45.187Z,99946.41
2022-11-23T16:59:22.704Z,99938.50
2022-11-23T17:01:56.623Z,99945.59
2022-11-23T17:04:25.361Z,99935.59
2022-11-23T17:06:52.404Z,99940.41
2022-11-23T17:09:19.531Z,99946.75
2022-11-23T17:11:50.227Z,99945.91
2022-11-23T17:14:19.149Z,99945.91
2022-11-23T17:16:57.389Z,99952.84
2022-11-23T17:19:24.443Z,99955.28
2022-11-23T17:21:51.622Z,99950.97
2022-11-23T17:24:18.906Z,99944.69
2022-11-23T17:26:52.632Z,99946.91
2022-11-23T17:29:21.239Z,99942.66
2022-11-23T17:31:50.559Z,99943.00
2022-11-23T17:34:18.003Z,99946.34
2022-11-23T17:36:49.281Z,99944.06
2022-11-23T17:39:23.550Z,99941.13
2022-11-23T17:41:51.135Z,99940.38
2022-11-23T17:44:18.267Z,99932.50
2022-11-23T17:46:47.045Z,99940.16
2022-11-23T17:49:19.943Z,99938.69
2022-11-23T17:51:47.081Z,99941.50
2022-11-23T17:54:14.051Z,99944.50
2022-11-23T17:56:41.085Z,99947.16
2022-11-23T17:59:08.613Z,99949.28
2022-11-23T18:01:35.744Z,99948.38
2022-11-23T18:04:04.831Z,99952.16
2022-11-23T18:06:32.026Z,99951.72
2022-11-23T18:08:59.267Z,99945.59
2022-11-23T18:11:28.383Z,99947.47
2022-11-23T18:13:55.697Z,99946.94
2022-11-23T18:16:23.810Z,99953.59
2022-11-23T18:18:51.026Z,99955.34
2022-11-23T18:21:18.941Z,99943.22
2022-11-23T18:23:46.124Z,99954.84
2022-11-23T18:26:25.874Z,99949.56
2022-11-23T18:28:53.666Z,99953.53
2022-11-23T18:31:21.146Z,99959.22
2022-11-23T18:33:48.238Z,99962.28
2022-11-23T18:36:15.882Z,99958.63
2022-11-23T18:38:46.597Z,99960.69
2022-11-23T18:41:16.398Z,99968.94
2022-11-23T18:43:45.316Z,99975.34
2022-11-23T18:46:19.132Z,99967.25
2022-11-23T18:48:48.767Z,99972.34
2022-11-23T18:51:17.269Z,99981.00
2022-11-23T18:53:47.322Z,99978.88
2022-11-23T18:56:14.387Z,99978.44
2022-11-23T18:58:44.625Z,99979.38
2022-11-23T19:01:21.919Z,99974.41
2022-11-23T19:03:52.842Z,99981.31
2022-11-23T19:06:22.737Z,99976.38
2022-11-23T19:08:54.573Z,99982.63
2022-11-23T19:11:25.970Z,99980.78
2022-11-23T19:13:57.551Z,99981.25
2022-11-23T19:16:29.985Z,99983.56
2022-11-23T19:19:06.671Z,99985.38
2022-11-23T19:21:36.028Z,99992.34
2022-11-23T19:24:04.092Z,99988.69
2022-11-23T19:26:31.606Z,99997.19
2022-11-23T19:28:59.384Z,99999.47
2022-11-23T19:31:30.284Z,99993.31
2022-11-23T19:34:01.577Z,100002.81
2022-11-23T19:36:31.147Z,100000.81
2022-11-23T19:39:00.547Z,99996.66
2022-11-23T19:41:30.654Z,100005.47
2022-11-23T19:44:00.413Z,100008.09
2022-11-23T19:46:30.299Z,100012.44
2022-11-23T19:48:58.384Z,100007.97
2022-11-23T19:51:26.879Z,100017.28
2022-11-23T19:53:57.030Z,100015.97
2022-11-23T19:56:28.734Z,100017.25
2022-11-23T19:59:01.155Z,100010.63
2022-11-23T20:01:32.089Z,100015.19
2022-11-23T20:04:08.841Z,100016.22
2022-11-23T20:06:38.649Z,100016.22
2022-11-23T20:09:10.216Z,100014.34
2022-11-23T20:11:40.354Z,100012.38
2022-11-23T20:14:10.679Z,100013.00
2022-11-23T20:16:38.634Z,100017.72
2022-11-23T20:19:09.405Z,100021.44
2022-11-23T20:21:37.885Z,100019.25
2022-11-23T20:24:11.441Z,100020.59
2022-11-23T20:26:39.152Z,100023.56
2022-11-23T20:29:08.463Z,100034.22
2022-11-23T20:31:37.121Z,100031.47
2022-11-23T20:34:07.547Z,100038.41
2022-11-23T20:36:38.021Z,100034.88
2022-11-23T20:39:09.768Z,100037.91
2022-11-23T20:41:38.472Z,100045.63
2022-11-23T20:44:12.642Z,100042.34
2022-11-23T20:49:27.896Z,100039.44
2022-11-23T20:51:54.895Z,100042.34
2022-11-23T20:54:21.923Z,100033.88
2022-11-23T20:56:48.912Z,100040.69
2022-11-23T20:59:16.061Z,100037.00
2022-11-23T21:01:43.110Z,100038.31
2022-11-23T21:04:10.263Z,100038.31
2022-11-23T21:06:39.814Z,100042.94
2022-11-23T21:09:09.250Z,100041.72
2022-11-23T21:11:58.324Z,100041.53
2022-11-23T21:14:27.992Z,100044.25
2022-11-23T21:16:59.276Z,100050.09
2022-11-23T21:19:42.009Z,100049.81
2022-11-23T21:22:13.433Z,100055.78
2022-11-23T21:24:40.882Z,100059.97
2022-11-23T21:27:12.504Z,100058.75
2022-11-23T21:29:39.533Z,100066.44
2022-11-23T21:32:06.564Z,100060.16
2022-11-23T21:34:33.891Z,100067.44
2022-11-23T21:37:01.613Z,100072.38
2022-11-23T21:39:31.544Z,100072.47
2022-11-23T21:41:58.856Z,100082.69
2022-11-23T21:44:26.368Z,100083.59
2022-11-23T21:46:53.495Z,100075.72
2022-11-23T21:49:20.593Z,100082.34
2022-11-23T21:51:48.191Z,100082.22
2022-11-23T21:54:15.700Z,100083.34
2022-11-23T21:56:45.609Z,100085.09
2022-11-23T21:59:13.333Z,100084.16
2022-11-23T22:01:42.479Z,100079.09
2022-11-23T22:04:16.159Z,100088.94
2022-11-23T22:06:45.325Z,100088.16
2022-11-23T22:09:13.774Z,100091.66
2022-11-23T22:11:43.653Z,100099.03
2022-11-23T22:14:15.208Z,100102.84
2022-11-23T22:16:56.608Z,100105.75
2022-11-23T22:19:27.389Z,100104.59
2022-11-23T22:21:54.506Z,100110.78
2022-11-23T22:24:22.586Z,100107.69
2022-11-23T22:26:49.939Z,100106.66
2022-11-23T22:29:17.225Z,100113.09
2022-11-23T22:31:44.462Z,100112.78
2022-11-23T22:34:13.807Z,100120.50
2022-11-23T22:36:41.368Z,100129.28
2022-11-23T22:39:09.532Z,100138.66
2022-11-23T22:41:38.181Z,100137.59
2022-11-23T22:44:09.808Z,100147.88
2022-11-23T22:46:38.536Z,100144.28
2022-11-23T22:49:06.020Z,100149.88
2022-11-23T22:51:33.724Z,100154.75
2022-11-23T22:54:01.953Z,100161.09
2022-11-23T22:56:31.171Z,100151.16
2022-11-23T22:58:58.969Z,100150.63
2022-11-23T23:01:30.136Z,100148.31
2022-11-23T23:04:01.422Z,100153.97
2022-11-23T23:06:35.832Z,100154.19
2022-11-23T23:09:07.188Z,100153.97
2022-11-23T23:11:35.699Z,100157.19
2022-11-23T23:14:03.551Z,100155.75
2022-11-23T23:16:31.023Z,100150.84
2022-11-23T23:18:59.666Z,100153.47
2022-11-23T23:21:29.116Z,100147.78
2022-11-23T23:24:00.937Z,100147.31
2022-11-23T23:26:29.106Z,100156.09
2022-11-23T23:28:59.763Z,100152.81
2022-11-23T23:31:28.459Z,100153.09
2022-11-23T23:33:55.770Z,100151.84
2022-11-23T23:36:24.451Z,100157.81
2022-11-23T23:38:52.121Z,100156.66
2022-11-23T23:41:19.664Z,100151.16
2022-11-23T23:43:48.294Z,100156.09
2022-11-23T23:46:16.362Z,100157.41
2022-11-23T23:48:44.061Z,100158.88
2022-11-23T23:51:18.152Z,100160.91
2022-11-23T23:53:46.640Z,100162.28
2022-11-23T23:56:27.121Z,100162.16
2022-11-23T23:58:59.044Z,100162.03
